Time;durP1;ratioP1;P1;durP2;ratioP2;P2;SDS_P1;SDS_P2;PMS_P1;PMS_P2;Temp;Humidity;BMP_temperature;BMP_pressure;BME280_temperature;BME280_humidity;BME280_pressure;Samples;Min_cycle;Max_cycle;Signal;HPM_P1;HPM_P2
2023/10/15 00:01:14;;;;;;;0.60;0.60;;;;;;;9.68;100.00;101768.53;10578985;28;20028;-68
2023/10/15 00:06:14;;;;;;;0.52;0.52;;;;;;;9.67;100.00;101759.56;10578445;28;20425;-71
2023/10/15 00:11:17;;;;;;;12.70;4.43;;;;;;;9.69;100.00;101752.09;10579464;28;20035;-68
2023/10/15 00:16:21;;;;;;;0.30;0.30;;;;;;;9.66;100.00;101757.03;10562153;28;20046;-69
2023/10/15 00:21:21;;;;;;;0.43;0.43;;;;;;;9.65;100.00;101752.63;10560749;28;20358;-69
2023/10/15 00:26:22;;;;;;;0.30;0.30;;;;;;;9.60;100.00;101763.94;10584833;28;20059;-69
2023/10/15 00:31:22;;;;;;;0.57;0.57;;;;;;;9.62;100.00;101745.69;10584334;28;20082;-68
2023/10/15 00:36:23;;;;;;;0.32;0.32;;;;;;;9.63;100.00;101746.53;10586851;28;20078;-68
2023/10/15 00:41:23;;;;;;;0.52;0.52;;;;;;;9.62;100.00;101745.69;10584978;28;20458;-69
2023/10/15 00:46:26;;;;;;;0.43;0.43;;;;;;;9.66;100.00;101741.63;10586231;28;20051;-68
2023/10/15 00:51:26;;;;;;;0.40;0.40;;;;;;;9.73;100.00;101739.09;10584842;28;20055;-69
2023/10/15 00:56:28;;;;;;;0.60;0.60;;;;;;;9.98;100.00;101751.53;10601333;27;20450;-69
2023/10/15 01:01:34;;;;;;;0.50;0.50;;;;;;;10.11;100.00;101756.41;10585550;28;20043;-69
2023/10/15 01:11:36;;;;;;;3.58;2.08;;;;;;;10.25;100.00;101771.97;10584971;28;20118;-68
2023/10/15 01:16:37;;;;;;;7.05;2.63;;;;;;;10.03;100.00;101770.00;10584107;28;20070;-70
2023/10/15 01:27:08;;;;;;;12.60;1.73;;;;;;;9.43;100.00;101771.22;10583991;28;20547;-70
2023/10/15 01:47:28;;;;;;;5.47;1.45;;;;;;;8.85;100.00;101764.06;10583853;28;20478;-70
2023/10/15 01:52:29;;;;;;;8.82;1.90;;;;;;;8.76;100.00;101771.28;10584024;28;20042;-70
2023/10/15 01:57:30;;;;;;;5.00;2.40;;;;;;;8.70;100.00;101763.84;10584953;27;20036;-69
2023/10/15 02:02:30;;;;;;;2.95;2.45;;;;;;;8.80;100.00;101766.41;10582544;28;20417;-69
2023/10/15 02:07:31;;;;;;;6.50;2.58;;;;;;;8.61;100.00;101764.81;10584349;28;20066;-70
2023/10/15 02:12:32;;;;;;;6.10;1.95;;;;;;;8.62;100.00;101828.63;10583109;28;20038;-69
2023/10/15 02:17:34;;;;;;;3.08;2.33;;;;;;;8.38;100.00;101811.28;10564062;28;20119;-70
2023/10/15 02:22:38;;;;;;;8.32;2.35;;;;;;;8.30;100.00;101797.72;10582420;28;20035;-70
2023/10/15 02:27:38;;;;;;;2.22;2.05;;;;;;;8.19;100.00;101813.34;10581743;28;20035;-70
2023/10/15 02:32:42;;;;;;;4.47;2.42;;;;;;;8.11;100.00;101809.59;10581696;28;20434;-70
2023/10/15 02:37:46;;;;;;;3.40;1.15;;;;;;;8.05;100.00;101810.22;10580474;28;20155;-70
2023/10/15 02:42:53;;;;;;;3.88;1.48;;;;;;;8.03;100.00;101823.03;10582447;28;20047;-71
2023/10/15 02:47:55;;;;;;;;;;;;;;;8.02;100.00;101851.00;10586768;28;20059;-69
2023/10/15 02:52:56;;;;;;;1.83;1.60;;;;;;;7.94;100.00;101850.94;10583375;28;19969;-70
2023/10/15 02:58:01;;;;;;;8.02;2.38;;;;;;;7.90;100.00;101823.44;10596784;27;20470;-70
2023/10/15 03:03:08;;;;;;;0.98;0.98;;;;;;;7.85;100.00;101803.34;10582070;28;20035;-71
2023/10/15 03:08:18;;;;;;;0.55;0.55;;;;;;;7.83;100.00;101787.31;10563770;28;20028;-70
2023/10/15 03:13:18;;;;;;;0.50;0.50;;;;;;;7.74;100.00;101780.16;10580085;28;20442;-70
2023/10/15 03:18:24;;;;;;;1.95;1.95;;;;;;;7.76;100.00;101767.38;10579813;28;20101;-71
2023/10/15 03:23:25;;;;;;;0.50;0.50;;;;;;;7.79;100.00;101788.66;10580940;28;20043;-71
2023/10/15 03:28:26;;;;;;;13.25;2.95;;;;;;;7.68;100.00;101787.03;10580566;28;20092;-71
2023/10/15 03:33:30;;;;;;;0.68;0.68;;;;;;;7.51;100.00;101785.22;10579676;28;20032;-70
2023/10/15 03:38:34;;;;;;;0.70;0.70;;;;;;;7.52;100.00;101795.00;10579822;28;20403;-71
2023/10/15 03:43:35;;;;;;;1.23;1.23;;;;;;;7.48;100.00;101790.91;10580921;28;20451;-71
2023/10/15 03:48:47;;;;;;;1.83;1.73;;;;;;;7.53;100.00;101803.91;10579983;28;20035;-71
2023/10/15 03:53:50;;;;;;;0.60;0.60;;;;;;;7.71;100.00;101810.13;10579691;28;20039;-70
2023/10/15 03:58:51;;;;;;;0.82;0.82;;;;;;;7.85;100.00;101819.53;10579174;28;20055;-70
2023/10/15 04:03:52;;;;;;;0.43;0.43;;;;;;;7.96;100.00;101804.94;10569408;28;20563;-71
2023/10/15 04:14:08;;;;;;;1.67;1.65;;;;;;;8.14;100.00;101811.97;10587877;28;20119;-70
2023/10/15 04:19:08;;;;;;;0.70;0.70;;;;;;;8.19;100.00;101813.34;10587979;27;20442;-71
2023/10/15 04:24:09;;;;;;;0.60;0.60;;;;;;;8.24;100.00;101802.94;10587060;28;20088;-71
2023/10/15 04:29:17;;;;;;;0.55;0.55;;;;;;;8.32;100.00;101819.16;10587335;28;20038;-71
2023/10/15 04:34:18;;;;;;;0.43;0.43;;;;;;;8.37;100.00;101830.31;10585862;28;20083;-71
2023/10/15 04:39:21;;;;;;;0.50;0.50;;;;;;;8.45;100.00;101843.88;10567935;28;20039;-69
2023/10/15 04:44:31;;;;;;;0.90;0.90;;;;;;;8.41;100.00;101847.91;10586497;28;20059;-70
2023/10/15 04:49:32;;;;;;;0.50;0.50;;;;;;;8.34;100.00;101852.22;10586770;28;20084;-70
2023/10/15 04:54:32;;;;;;;0.47;0.47;;;;;;;8.11;100.00;101851.91;10601966;27;20139;-71
2023/10/15 04:59:32;;;;;;;2.90;2.67;;;;;;;8.09;100.00;101849.38;10600805;27;20028;-71
2023/10/15 05:04:33;;;;;;;0.50;0.50;;;;;;;8.18;100.00;101852.13;10585505;28;20039;-71
2023/10/15 05:09:39;;;;;;;0.52;0.52;;;;;;;7.96;100.00;101858.88;10585808;28;20031;-71
2023/10/15 05:14:40;;;;;;;1.90;1.90;;;;;;;7.72;100.00;101851.44;10584463;28;20028;-71
2023/10/15 05:19:42;;;;;;;0.45;0.45;;;;;;;7.62;100.00;101844.25;10567747;28;20508;-71
2023/10/15 05:24:43;;;;;;;0.50;0.50;;;;;;;7.62;100.00;101840.72;10586096;28;20027;-72
2023/10/15 05:29:43;;;;;;;2.05;1.58;;;;;;;7.56;100.00;101844.91;10583348;28;20104;-71
2023/10/15 05:34:43;;;;;;;0.52;0.52;;;;;;;7.47;100.00;101864.69;10583204;28;20083;-71
2023/10/15 05:39:45;;;;;;;0.50;0.50;;;;;;;7.59;100.00;101866.13;10583984;28;20392;-73
2023/10/15 05:44:45;;;;;;;0.60;0.60;;;;;;;7.86;100.00;101854.41;10582396;28;20104;-71
2023/10/15 05:49:46;;;;;;;0.50;0.50;;;;;;;7.98;100.00;101851.50;10583781;28;20028;-71
2023/10/15 05:54:51;;;;;;;0.50;0.50;;;;;;;8.04;100.00;101864.31;10583949;28;20032;-70
2023/10/15 05:59:51;;;;;;;0.57;0.57;;;;;;;8.04;100.00;101884.06;10584202;28;20386;-71
2023/10/15 06:04:52;;;;;;;0.40;0.40;;;;;;;8.14;100.00;101892.91;10582637;28;20043;-70
2023/10/15 06:09:53;;;;;;;0.40;0.40;;;;;;;8.28;100.00;101891.47;10583157;27;20515;-71
2023/10/15 06:14:53;;;;;;;0.55;0.55;;;;;;;8.29;100.00;101887.78;10581975;28;20089;-71
2023/10/15 06:19:54;;;;;;;0.45;0.45;;;;;;;8.07;100.00;101878.38;10583237;28;20182;-71
2023/10/15 06:24:54;;;;;;;0.52;0.52;;;;;;;7.89;100.00;101886.47;10580325;28;20055;-70
2023/10/15 06:29:54;;;;;;;0.50;0.50;;;;;;;7.96;100.00;101894.78;10580524;28;20072;-70
2023/10/15 06:34:56;;;;;;;1.05;1.05;;;;;;;7.93;100.00;101904.03;10582490;28;20086;-70
2023/10/15 06:39:56;;;;;;;0.50;0.50;;;;;;;8.23;100.00;101899.22;10580565;28;20044;-71
2023/10/15 06:44:57;;;;;;;0.50;0.50;;;;;;;8.61;100.00;101897.13;10583394;28;20087;-71
2023/10/15 06:49:57;;;;;;;0.50;0.50;;;;;;;8.83;100.00;101901.13;10582289;28;20027;-71
2023/10/15 06:54:58;;;;;;;0.50;0.50;;;;;;;8.83;100.00;101914.63;10581251;28;20054;-71
2023/10/15 06:59:58;;;;;;;0.50;0.50;;;;;;;8.77;100.00;101920.66;10580290;28;20046;-71
2023/10/15 07:05:02;;;;;;;0.50;0.50;;;;;;;8.65;100.00;101930.91;10580851;28;20028;-71
2023/10/15 07:10:05;;;;;;;0.50;0.50;;;;;;;8.50;100.00;101944.13;10580744;28;20081;-71
2023/10/15 07:15:09;;;;;;;0.45;0.45;;;;;;;8.33;100.00;101943.16;10580379;28;20033;-71
2023/10/15 07:20:18;;;;;;;0.40;0.40;;;;;;;8.19;100.00;101956.34;10580199;28;20055;-71
2023/10/15 07:25:19;;;;;;;0.50;0.50;;;;;;;8.14;100.00;101971.16;10578461;28;20530;-70
2023/10/15 07:30:22;;;;;;;0.50;0.50;;;;;;;9.30;100.00;101992.53;10577183;28;20095;-71
2023/10/15 07:35:23;;;;;;;0.40;0.40;;;;;;;10.98;100.00;101994.06;10577330;28;20105;-71
2023/10/15 07:40:26;;;;;;;0.60;0.60;;;;;;;11.79;100.00;101990.16;10578404;28;20037;-71
2023/10/15 07:45:27;;;;;;;2.42;1.10;;;;;;;10.73;100.00;102010.38;10578350;28;20031;-71
2023/10/15 07:50:29;;;;;;;0.52;0.52;;;;;;;10.21;100.00;102016.09;10578699;28;20028;-71
2023/10/15 07:55:29;;;;;;;0.40;0.40;;;;;;;10.11;100.00;102015.41;10579693;28;20119;-72
2023/10/15 08:00:30;;;;;;;0.40;0.40;;;;;;;9.94;100.00;102037.03;10577810;28;20079;-72
2023/10/15 08:05:31;;;;;;;0.50;0.50;;;;;;;9.18;100.00;102043.31;10580111;28;20042;-71
2023/10/15 08:10:34;;;;;;;0.50;0.50;;;;;;;8.76;100.00;102017.03;10578571;28;20479;-72
2023/10/15 08:15:35;;;;;;;0.50;0.50;;;;;;;8.80;100.00;102023.81;10579111;28;20042;-70
2023/10/15 08:20:35;;;;;;;0.52;0.52;;;;;;;9.14;100.00;102060.00;10561513;28;20343;-72
2023/10/15 08:25:36;;;;;;;0.90;0.90;;;;;;;9.10;100.00;102073.00;10577236;28;20070;-71
2023/10/15 08:30:37;;;;;;;0.47;0.47;;;;;;;8.87;100.00;102077.22;10578790;28;20374;-70
2023/10/15 08:35:41;;;;;;;0.30;0.30;;;;;;;8.78;100.00;102087.97;10577354;28;20496;-72
2023/10/15 08:40:45;;;;;;;0.40;0.40;;;;;;;8.84;100.00;102092.75;10560680;28;20032;-70
2023/10/15 08:45:45;;;;;;;1.77;1.67;;;;;;;8.82;100.00;102083.09;10580212;28;20036;-70
2023/10/15 08:50:46;;;;;;;1.13;1.13;;;;;;;8.76;100.00;102094.53;10567744;28;20024;-70
2023/10/15 08:55:46;;;;;;;1.60;1.50;;;;;;;8.76;100.00;102110.72;10584421;28;20032;-69
2023/10/15 09:00:47;;;;;;;0.63;0.63;;;;;;;8.64;100.00;102123.59;10584640;28;20035;-70
2023/10/15 09:05:52;;;;;;;0.50;0.50;;;;;;;8.62;100.00;102098.63;10584087;28;20041;-71
2023/10/15 09:10:52;;;;;;;0.50;0.50;;;;;;;8.59;100.00;102116.00;10585421;28;20382;-71
2023/10/15 09:15:55;;;;;;;0.77;0.57;;;;;;;8.59;100.00;102115.16;10583056;28;20039;-72
2023/10/15 09:20:58;;;;;;;0.43;0.43;;;;;;;8.49;100.00;102120.63;10584754;28;20028;-72
2023/10/15 09:25:59;;;;;;;0.50;0.50;;;;;;;8.55;100.00;102136.22;10567106;28;20028;-71
2023/10/15 09:31:06;;;;;;;1.05;1.00;;;;;;;11.01;100.00;102135.50;10582602;28;20382;-72
2023/10/15 09:36:07;;;;;;;0.63;0.63;;;;;;;12.81;100.00;102134.78;10581525;28;20380;-72
2023/10/15 09:41:07;;;;;;;0.40;0.40;;;;;;;13.95;100.00;102151.88;10582816;28;20076;-74
2023/10/15 09:46:09;;;;;;;0.60;0.60;;;;;;;14.57;100.00;102147.81;10584848;28;20028;-71
2023/10/15 09:51:09;;;;;;;3.60;3.40;;;;;;;15.15;100.00;102154.00;10583222;28;20067;-71
2023/10/15 09:56:12;;;;;;;0.50;0.50;;;;;;;15.43;100.00;102167.66;10582337;28;20031;-72
2023/10/15 10:01:25;;;;;;;0.50;0.50;;;;;;;15.26;100.00;102171.75;10564564;28;20028;-72
2023/10/15 10:06:48;;;;;;;0.40;0.40;;;;;;;13.01;100.00;102189.50;10567538;28;20023;-71
2023/10/15 10:12:07;;;;;;;0.52;0.52;;;;;;;12.02;100.00;102183.78;10584081;28;20035;-71
2023/10/15 10:17:07;;;;;;;0.60;0.60;;;;;;;11.69;100.00;102174.91;10599078;27;20035;-71
2023/10/15 10:22:27;;;;;;;1.30;1.30;;;;;;;11.30;100.00;102182.94;10582498;28;20352;-70
2023/10/15 10:27:27;;;;;;;0.50;0.50;;;;;;;13.07;100.00;102180.63;10564187;28;20038;-71
2023/10/15 10:32:27;;;;;;;0.80;0.80;;;;;;;15.20;100.00;102183.44;10581601;28;20498;-72
2023/10/15 10:37:31;;;;;;;2.63;1.80;;;;;;;16.12;100.00;102187.88;10580186;28;20052;-71
2023/10/15 10:42:31;;;;;;;0.50;0.50;;;;;;;14.62;100.00;102195.25;10580297;28;20126;-72
2023/10/15 10:47:34;;;;;;;3.00;2.05;;;;;;;13.32;100.00;102192.16;10581580;28;20038;-72
2023/10/15 10:52:37;;;;;;;0.50;0.50;;;;;;;12.73;100.00;102200.06;10580959;28;20375;-71
2023/10/15 10:57:41;;;;;;;0.40;0.40;;;;;;;12.64;100.00;102217.47;10562724;28;20039;-71
2023/10/15 11:02:41;;;;;;;0.50;0.50;;;;;;;12.49;100.00;102215.50;10581530;28;20038;-70
2023/10/15 11:07:42;;;;;;;0.40;0.40;;;;;;;12.10;100.00;102232.66;10561435;28;20036;-70
2023/10/15 11:12:45;;;;;;;0.40;0.40;;;;;;;12.76;100.00;102227.75;10579862;28;20434;-68
2023/10/15 11:17:58;;;;;;;0.50;0.50;;;;;;;14.34;100.00;102224.22;10580620;28;20039;-68
2023/10/15 11:23:01;;;;;;;0.60;0.60;;;;;;;14.73;100.00;102220.31;10586331;28;20034;-73
2023/10/15 11:28:04;;;;;;;0.60;0.60;;;;;;;16.01;100.00;102214.72;10578017;28;20115;-70
2023/10/15 11:33:07;;;;;;;0.65;0.65;;;;;;;16.72;100.00;102208.09;10561040;28;20103;-70
2023/10/15 11:38:08;;;;;;;1.55;1.55;;;;;;;17.87;100.00;102223.34;10562765;28;20062;-70
2023/10/15 11:43:14;;;;;;;0.70;0.70;;;;;;;16.06;100.00;102237.88;10560985;28;20111;-69
2023/10/15 11:48:21;;;;;;;0.50;0.50;;;;;;;14.51;100.00;102263.88;10579260;28;20024;-70
2023/10/15 11:53:23;;;;;;;;;;;;;;;12.59;100.00;102275.06;10579841;28;20454;-77
2023/10/15 11:58:23;;;;;;;0.50;0.50;;;;;;;11.35;100.00;102254.63;10579470;28;20045;-76
2023/10/15 12:03:24;;;;;;;0.60;0.60;;;;;;;11.11;100.00;102241.91;10579332;28;20047;-77
2023/10/15 12:08:26;;;;;;;0.40;0.40;;;;;;;11.56;100.00;102247.84;10579745;28;20471;-78
2023/10/15 12:13:27;;;;;;;0.50;0.50;;;;;;;10.98;100.00;102268.66;10589875;28;20114;-80
2023/10/15 12:18:27;;;;;;;0.45;0.45;;;;;;;10.37;100.00;102276.09;10590588;28;20047;-73
2023/10/15 12:23:28;;;;;;;0.38;0.38;;;;;;;10.10;100.00;102263.56;10585876;28;20035;-72
2023/10/15 12:28:29;;;;;;;0.40;0.40;;;;;;;10.31;100.00;102273.19;10587799;28;20051;-72
2023/10/15 12:33:29;;;;;;;0.63;0.63;;;;;;;12.48;100.00;102251.84;10569498;28;20047;-73
2023/10/15 12:38:31;;;;;;;0.30;0.30;;;;;;;13.30;100.00;102250.50;10586920;28;20428;-73
2023/10/15 12:43:32;;;;;;;1.00;1.00;;;;;;;12.30;100.00;102260.25;10587017;28;20499;-76
2023/10/15 12:48:32;;;;;;;0.50;0.50;;;;;;;11.79;100.00;102250.69;10587999;28;20126;-76
2023/10/15 12:53:33;;;;;;;8.93;3.20;;;;;;;11.53;100.00;102275.31;10568363;28;20046;-76
2023/10/15 12:58:33;;;;;;;0.63;0.63;;;;;;;12.36;100.00;102274.16;10587402;28;20034;-78
2023/10/15 13:03:34;;;;;;;0.43;0.43;;;;;;;12.70;100.00;102273.81;10585477;28;20065;-74
2023/10/15 13:08:34;;;;;;;0.60;0.60;;;;;;;12.10;100.00;102273.38;10587575;28;20035;-74
2023/10/15 13:13:35;;;;;;;0.40;0.40;;;;;;;11.61;100.00;102283.44;10585314;28;20141;-77
2023/10/15 13:18:39;;;;;;;0.60;0.60;;;;;;;12.70;100.00;102280.13;10584960;28;20027;-76
2023/10/15 13:23:40;;;;;;;13.23;3.55;;;;;;;13.98;100.00;102276.75;10585162;28;20454;-75
2023/10/15 13:28:40;;;;;;;2.22;2.05;;;;;;;14.61;100.00;102278.09;10585570;28;20043;-73
2023/10/15 13:33:41;;;;;;;0.60;0.60;;;;;;;15.46;100.00;102290.13;10598946;27;20470;-74
2023/10/15 13:38:41;;;;;;;0.50;0.50;;;;;;;16.17;100.00;102287.31;10584614;28;20055;-77
2023/10/15 13:43:41;;;;;;;0.60;0.60;;;;;;;16.03;100.00;102296.50;10600235;27;20089;-75
2023/10/15 13:48:42;;;;;;;3.65;3.33;;;;;;;13.89;100.00;102307.84;10584319;28;20032;-76
2023/10/15 13:53:43;;;;;;;0.50;0.50;;;;;;;12.95;100.00;102302.53;10565809;28;20042;-71
2023/10/15 13:58:43;;;;;;;0.50;0.50;;;;;;;12.54;100.00;102305.50;10584260;28;20353;-76
2023/10/15 14:03:45;;;;;;;0.50;0.50;;;;;;;12.09;100.00;102309.72;10583924;28;20088;-74
2023/10/15 14:08:45;;;;;;;0.60;0.60;;;;;;;12.52;100.00;102299.38;10582320;28;20031;-74
2023/10/15 14:13:46;;;;;;;0.60;0.60;;;;;;;13.10;100.00;102305.34;10585280;28;20035;-75
2023/10/15 14:18:48;;;;;;;0.50;0.50;;;;;;;13.35;100.00;102303.34;10585342;28;20490;-72
2023/10/15 14:23:49;;;;;;;2.15;2.05;;;;;;;13.35;100.00;102297.91;10585679;28;20063;-72
2023/10/15 14:28:50;;;;;;;0.63;0.63;;;;;;;13.06;100.00;102295.03;10584238;28;20442;-72
2023/10/15 14:33:50;;;;;;;0.50;0.50;;;;;;;12.42;100.00;102315.03;10582692;28;20062;-72
2023/10/15 14:38:51;;;;;;;0.60;0.60;;;;;;;12.88;100.00;102315.16;10582502;28;20039;-71
2023/10/15 14:43:51;;;;;;;2.67;2.47;;;;;;;12.41;100.00;102315.22;10581878;28;20119;-71
2023/10/15 14:48:52;;;;;;;0.50;0.50;;;;;;;12.06;100.00;102318.22;10582698;28;20035;-69
2023/10/15 14:53:53;;;;;;;0.45;0.45;;;;;;;11.72;100.00;102329.22;10581820;28;20443;-71
2023/10/15 14:58:53;;;;;;;6.47;2.25;;;;;;;11.28;100.00;102334.97;10597784;27;20424;-71
2023/10/15 15:03:55;;;;;;;4.07;1.90;;;;;;;11.04;100.00;102343.03;10579878;28;20451;-71
2023/10/15 15:08:56;;;;;;;6.43;2.25;;;;;;;10.71;100.00;102341.06;10580352;28;20190;-71
2023/10/15 15:13:56;;;;;;;8.27;1.95;;;;;;;10.68;100.00;102337.84;10562663;28;20104;-71
2023/10/15 15:18:57;;;;;;;2.97;2.42;;;;;;;10.77;100.00;102334.13;10580789;28;20060;-69
2023/10/15 15:23:57;;;;;;;3.67;2.28;;;;;;;10.98;100.00;102341.00;10582139;28;20092;-72
2023/10/15 15:28:57;;;;;;;6.40;2.28;;;;;;;10.98;100.00;102341.00;10582813;28;20356;-71
2023/10/15 15:33:58;;;;;;;16.13;2.20;;;;;;;10.68;100.00;102333.25;10579395;28;20131;-70
2023/10/15 15:38:59;;;;;;;10.25;2.55;;;;;;;10.46;100.00;102334.72;10580897;28;20043;-71
2023/10/15 15:44:02;;;;;;;2.15;1.63;;;;;;;10.30;100.00;102340.00;10579819;28;20086;-70
2023/10/15 15:49:06;;;;;;;3.55;2.70;;;;;;;10.13;100.00;102338.19;10547201;28;20054;-70
2023/10/15 15:54:06;;;;;;;2.15;2.05;;;;;;;9.80;100.00;102331.72;10578144;28;20122;-69
2023/10/15 15:59:07;;;;;;;2.83;1.92;;;;;;;9.77;100.00;102346.41;10577005;28;20036;-70
2023/10/15 16:04:07;;;;;;;5.53;2.35;;;;;;;9.64;100.00;102348.66;10578894;28;20040;-70
2023/10/15 16:09:08;;;;;;;9.05;2.78;;;;;;;9.55;100.00;102350.44;10580896;28;20119;-69
2023/10/15 16:14:09;;;;;;;7.07;2.40;;;;;;;9.61;100.00;102354.38;10560120;28;20114;-70
2023/10/15 16:19:10;;;;;;;5.13;1.95;;;;;;;9.69;100.00;102352.56;10577472;28;20035;-69
2023/10/15 16:24:10;;;;;;;5.65;1.85;;;;;;;9.57;100.00;102351.09;10578836;28;20035;-69
2023/10/15 16:29:10;;;;;;;5.53;2.47;;;;;;;9.36;100.00;102358.69;10578449;28;20139;-70
2023/10/15 16:34:11;;;;;;;12.20;2.47;;;;;;;9.21;100.00;102370.03;10579322;28;20096;-69
2023/10/15 16:39:17;;;;;;;9.27;2.78;;;;;;;9.08;100.00;102370.38;10579529;28;20038;-71
2023/10/15 16:44:18;;;;;;;2.83;1.27;;;;;;;8.91;100.00;102373.91;10580358;28;20032;-70
2023/10/15 16:49:19;;;;;;;2.42;2.20;;;;;;;8.91;100.00;102375.78;10578295;28;20027;-69
2023/10/15 16:54:19;;;;;;;10.23;2.38;;;;;;;9.16;100.00;102388.56;10577248;28;20442;-75
2023/10/15 16:59:20;;;;;;;2.13;1.92;;;;;;;9.19;100.00;102388.25;10560366;28;20079;-73
2023/10/15 17:04:20;;;;;;;3.03;1.48;;;;;;;9.04;100.00;102387.91;10595539;28;20040;-72
2023/10/15 17:09:21;;;;;;;2.00;1.80;;;;;;;8.78;100.00;102389.63;10582578;28;20472;-70
2023/10/15 17:14:21;;;;;;;5.38;1.55;;;;;;;8.56;100.00;102401.66;10584426;27;20050;-73
2023/10/15 17:19:22;;;;;;;2.72;2.53;;;;;;;8.41;100.00;102411.22;10583970;28;20027;-72
2023/10/15 17:24:22;;;;;;;13.70;3.97;;;;;;;8.29;100.00;102411.34;10583674;28;20545;-72
2023/10/15 17:29:25;;;;;;;6.07;4.38;;;;;;;8.11;100.00;102421.19;10583108;28;20024;-72
2023/10/15 17:34:28;;;;;;;13.57;3.35;;;;;;;7.89;100.00;102422.34;10584379;28;20079;-73
2023/10/15 17:39:28;;;;;;;13.05;4.82;;;;;;;7.73;100.00;102420.22;10567592;28;20047;-72
2023/10/15 17:44:29;;;;;;;6.90;4.45;;;;;;;7.83;100.00;102433.69;10584106;28;20039;-72
2023/10/15 17:49:29;;;;;;;9.45;5.28;;;;;;;7.88;100.00;102418.78;10583359;28;20031;-71
2023/10/15 17:54:30;;;;;;;21.13;5.68;;;;;;;7.88;100.00;102426.00;10582606;28;20161;-71
2023/10/15 17:59:30;;;;;;;6.05;3.35;;;;;;;7.82;100.00;102426.59;10584459;28;20032;-71
2023/10/15 18:04:32;;;;;;;14.40;4.00;;;;;;;7.75;100.00;102433.53;10581246;28;20499;-71
2023/10/15 18:09:33;;;;;;;13.23;3.38;;;;;;;7.54;100.00;102426.44;10581884;28;20049;-71
2023/10/15 18:14:34;;;;;;;6.25;4.03;;;;;;;7.38;100.00;102434.22;10564945;28;20536;-72
2023/10/15 18:19:34;;;;;;;4.40;3.25;;;;;;;7.25;100.00;102430.94;10581031;28;20138;-72
2023/10/15 18:24:34;;;;;;;2.92;2.47;;;;;;;7.29;100.00;102435.03;10583420;28;20040;-72
2023/10/15 18:29:35;;;;;;;5.63;3.03;;;;;;;7.49;100.00;102434.06;10583036;28;20027;-72
2023/10/15 18:34:35;;;;;;;8.57;4.97;;;;;;;7.48;100.00;102431.53;10584285;28;20052;-70
2023/10/15 18:39:36;;;;;;;5.78;3.67;;;;;;;7.41;100.00;102445.56;10597285;27;20050;-73
2023/10/15 18:44:37;;;;;;;6.10;3.30;;;;;;;7.34;100.00;102446.25;10582002;28;20023;-71
2023/10/15 18:49:37;;;;;;;9.45;4.07;;;;;;;7.21;100.00;102444.69;10580869;28;20463;-71
2023/10/15 18:54:37;;;;;;;5.53;3.15;;;;;;;7.20;100.00;102451.03;10581175;28;20051;-71
2023/10/15 18:59:38;;;;;;;9.63;3.90;;;;;;;7.05;100.00;102447.03;10581415;28;20111;-71
2023/10/15 19:04:38;;;;;;;5.60;3.90;;;;;;;7.10;100.00;102449.31;10581429;27;20032;-71
2023/10/15 19:09:39;;;;;;;6.80;3.17;;;;;;;7.19;100.00;102446.66;10596949;27;20055;-72
2023/10/15 19:14:41;;;;;;;2.35;2.22;;;;;;;7.20;100.00;102442.94;10579688;28;20032;-71
2023/10/15 19:19:42;;;;;;;7.88;4.45;;;;;;;7.10;100.00;102439.38;10579637;28;20035;-71
2023/10/15 19:24:43;;;;;;;20.00;4.72;;;;;;;6.99;100.00;102447.59;10562334;28;20051;-72
2023/10/15 19:29:43;;;;;;;19.73;5.35;;;;;;;6.94;100.00;102452.50;10561887;28;20065;-72
2023/10/15 19:34:43;;;;;;;15.07;4.93;;;;;;;6.84;100.00;102454.31;10580049;28;20064;-70
2023/10/15 19:39:44;;;;;;;6.78;3.08;;;;;;;6.93;100.00;102454.34;10578587;28;20043;-72
2023/10/15 19:44:44;;;;;;;7.45;4.15;;;;;;;6.91;100.00;102455.47;10579287;28;20044;-72
2023/10/15 19:49:45;;;;;;;7.13;4.78;;;;;;;6.85;100.00;102474.88;10579718;28;20027;-70
2023/10/15 19:54:45;;;;;;;10.70;4.18;;;;;;;6.77;100.00;102478.25;10561850;28;20114;-71
2023/10/15 19:59:46;;;;;;;13.70;7.03;;;;;;;6.73;100.00;102485.72;10582023;28;20035;-71
2023/10/15 20:04:46;;;;;;;8.20;3.33;;;;;;;6.76;100.00;102479.19;10583538;28;20032;-72
2023/10/15 20:09:47;;;;;;;7.78;4.10;;;;;;;6.74;100.00;102481.19;10580735;28;20038;-72
2023/10/15 20:14:48;;;;;;;20.55;4.53;;;;;;;6.64;100.00;102475.75;10580615;28;20447;-73
2023/10/15 20:19:48;;;;;;;8.52;3.55;;;;;;;6.60;100.00;102485.06;10577893;28;20177;-72
2023/10/15 20:24:48;;;;;;;6.68;3.45;;;;;;;6.53;100.00;102478.50;10595449;28;20035;-69
2023/10/15 20:29:50;;;;;;;8.95;3.05;;;;;;;6.58;100.00;102470.91;10578450;28;20443;-72
2023/10/15 20:34:51;;;;;;;6.15;3.53;;;;;;;6.50;100.00;102486.84;10577283;28;20127;-72
2023/10/15 20:39:52;;;;;;;6.32;4.18;;;;;;;6.43;100.00;102489.22;10580324;28;20039;-71
2023/10/15 20:44:52;;;;;;;7.32;3.97;;;;;;;6.51;100.00;102486.72;10586721;28;20084;-71
2023/10/15 20:49:52;;;;;;;4.72;3.55;;;;;;;6.50;100.00;102487.69;10585514;28;20042;-72
2023/10/15 20:54:53;;;;;;;8.07;3.47;;;;;;;6.52;100.00;102482.19;10586438;28;20062;-70
2023/10/15 20:59:53;;;;;;;8.55;4.05;;;;;;;6.50;100.00;102489.53;10588210;28;20031;-69
2023/10/15 21:04:54;;;;;;;7.22;3.53;;;;;;;6.42;100.00;102476.75;10587581;28;20426;-71
2023/10/15 21:09:55;;;;;;;12.48;5.13;;;;;;;6.42;100.00;102475.91;10586668;28;20119;-69
2023/10/15 21:14:55;;;;;;;6.60;3.25;;;;;;;6.42;100.00;102473.22;10583425;28;20110;-71
2023/10/15 21:19:56;;;;;;;8.52;3.72;;;;;;;6.40;100.00;102467.94;10586464;28;20123;-70
2023/10/15 21:24:56;;;;;;;14.48;4.78;;;;;;;6.55;100.00;102465.78;10584781;28;20035;-71
2023/10/15 21:29:57;;;;;;;5.55;3.65;;;;;;;6.72;100.00;102472.38;10584861;28;20439;-72
2023/10/15 21:34:58;;;;;;;4.53;3.50;;;;;;;6.84;100.00;102465.94;10565685;28;20513;-71
2023/10/15 21:39:58;;;;;;;11.75;4.10;;;;;;;6.94;100.00;102457.91;10583929;28;20042;-70
2023/10/15 21:44:59;;;;;;;3.13;2.85;;;;;;;6.93;100.00;102453.50;10583999;28;20119;-71
2023/10/15 21:50:00;;;;;;;17.67;4.60;;;;;;;6.84;100.00;102447.09;10585211;27;20035;-73
2023/10/15 21:55:01;;;;;;;8.35;3.63;;;;;;;6.86;100.00;102434.34;10564490;28;20096;-73
2023/10/15 22:00:07;;;;;;;10.13;2.97;;;;;;;7.05;100.00;102440.78;10583690;28;20095;-73
2023/10/15 22:05:08;;;;;;;4.03;3.08;;;;;;;7.07;100.00;102444.19;10583752;28;20031;-72
2023/10/15 22:10:09;;;;;;;4.72;3.30;;;;;;;7.11;100.00;102448.31;10581805;28;20035;-71
2023/10/15 22:15:10;;;;;;;8.35;3.40;;;;;;;7.14;100.00;102442.66;10582119;28;20502;-72
2023/10/15 22:20:19;;;;;;;6.88;3.67;;;;;;;7.19;100.00;102443.09;10580836;28;20035;-72
2023/10/15 22:25:21;;;;;;;3.85;3.05;;;;;;;7.46;100.00;102447.84;10582706;28;20034;-73
2023/10/15 22:30:22;;;;;;;6.68;3.63;;;;;;;7.62;100.00;102429.25;10581144;28;20039;-72
2023/10/15 22:35:23;;;;;;;13.88;5.68;;;;;;;7.77;100.00;102434.25;10582956;28;20055;-73
2023/10/15 22:40:24;;;;;;;6.22;3.75;;;;;;;7.74;100.00;102431.84;10582297;27;20027;-73
2023/10/15 22:45:26;;;;;;;11.73;3.58;;;;;;;7.62;100.00;102417.63;10580456;28;20077;-72
2023/10/15 22:50:26;;;;;;;6.65;2.95;;;;;;;7.51;100.00;102415.94;10580164;28;20480;-72
2023/10/15 22:55:26;;;;;;;6.20;3.58;;;;;;;7.44;100.00;102412.09;10580106;28;20046;-72
2023/10/15 23:00:34;;;;;;;4.15;2.60;;;;;;;7.37;100.00;102411.81;10580378;28;20074;-76
2023/10/15 23:05:35;;;;;;;2.08;1.83;;;;;;;7.29;100.00;102414.34;10581133;28;20045;-73
2023/10/15 23:10:37;;;;;;;2.75;2.50;;;;;;;7.19;100.00;102416.16;10578778;28;20081;-72
2023/10/15 23:15:40;;;;;;;3.10;2.22;;;;;;;7.02;100.00;102414.13;10580921;28;20066;-73
2023/10/15 23:20:40;;;;;;;9.68;2.50;;;;;;;6.88;100.00;102408.13;10581282;28;20379;-73
2023/10/15 23:25:41;;;;;;;6.65;2.42;;;;;;;6.82;100.00;102415.91;10580372;28;20040;-71
2023/10/15 23:30:43;;;;;;;3.63;2.05;;;;;;;6.76;100.00;102414.59;10596164;27;20039;-72